createdAt,value
2023-06-18T00:01:22.517Z,99.90
2023-06-18T00:03:49.474Z,99.90
2023-06-18T00:06:16.250Z,99.90
2023-06-18T00:08:42.881Z,99.90
2023-06-18T00:11:09.498Z,99.90
2023-06-18T00:13:36.130Z,99.90
2023-06-18T00:16:02.884Z,99.90
2023-06-18T00:18:29.509Z,99.90
2023-06-18T00:20:56.192Z,99.90
2023-06-18T00:23:22.837Z,99.90
2023-06-18T00:25:49.485Z,99.90
2023-06-18T00:28:16.323Z,99.90
2023-06-18T00:30:43.011Z,99.90
2023-06-18T00:33:09.939Z,99.90
2023-06-18T00:35:36.687Z,99.90
2023-06-18T00:38:04.223Z,99.90
2023-06-18T00:40:31.096Z,99.90
2023-06-18T00:42:58.014Z,99.90
2023-06-18T00:45:25.100Z,99.90
2023-06-18T00:47:51.879Z,99.90
2023-06-18T00:50:20.310Z,99.90
2023-06-18T00:52:49.169Z,99.90
2023-06-18T00:55:21.878Z,99.90
2023-06-18T00:58:00.843Z,99.90
2023-06-18T01:00:29.661Z,99.90
2023-06-18T01:02:57.018Z,99.90
2023-06-18T01:05:24.390Z,99.90
2023-06-18T01:07:52.094Z,99.90
2023-06-18T01:10:22.066Z,99.90
2023-06-18T01:12:50.063Z,99.90
2023-06-18T01:15:17.414Z,99.90
2023-06-18T01:17:49.072Z,99.90
2023-06-18T01:20:17.696Z,99.90
2023-06-18T01:22:53.368Z,99.90
2023-06-18T01:25:20.873Z,99.90
2023-06-18T01:27:48.323Z,99.90
2023-06-18T01:30:15.448Z,99.90
2023-06-18T01:32:42.153Z,99.90
2023-06-18T01:35:15.966Z,99.90
2023-06-18T01:37:54.799Z,99.90
2023-06-18T01:40:21.878Z,99.90
2023-06-18T01:43:07.588Z,99.90
2023-06-18T01:45:41.007Z,99.90
2023-06-18T01:48:08.389Z,99.90
2023-06-18T01:50:36.463Z,99.90
2023-06-18T01:53:03.977Z,99.90
2023-06-18T01:55:30.732Z,99.90
2023-06-18T01:57:57.643Z,99.90
2023-06-18T02:00:24.841Z,99.90
2023-06-18T02:02:52.577Z,99.90
2023-06-18T02:05:19.780Z,99.90
2023-06-18T02:07:46.894Z,99.90
2023-06-18T02:10:13.508Z,99.90
2023-06-18T02:17:34.300Z,99.90
2023-06-18T02:22:28.048Z,99.90
2023-06-18T02:32:15.987Z,99.90
2023-06-18T02:34:42.651Z,99.90
2023-06-18T02:37:09.632Z,99.90
2023-06-18T02:39:36.355Z,99.90
2023-06-18T02:42:03.084Z,99.90
2023-06-18T02:44:29.818Z,99.90
2023-06-18T02:46:56.900Z,99.90
2023-06-18T02:49:23.585Z,99.90
2023-06-18T02:51:50.270Z,99.90
2023-06-18T02:54:17.016Z,99.90
2023-06-18T02:56:44.258Z,99.90
2023-06-18T02:59:11.207Z,99.90
2023-06-18T03:01:38.599Z,99.90
2023-06-18T03:04:05.223Z,99.90
2023-06-18T03:06:32.345Z,99.90
2023-06-18T03:08:58.990Z,99.90
2023-06-18T03:11:25.817Z,99.90
2023-06-18T03:13:52.540Z,99.90
2023-06-18T03:16:19.275Z,99.90
2023-06-18T03:18:46.175Z,99.90
2023-06-18T03:21:12.842Z,99.90
2023-06-18T03:23:39.453Z,99.90
2023-06-18T03:26:06.187Z,99.90
2023-06-18T03:28:33.015Z,99.90
2023-06-18T03:30:59.818Z,99.90
2023-06-18T03:33:30.459Z,99.90
2023-06-18T03:36:01.301Z,99.90
2023-06-18T03:38:28.781Z,99.90
2023-06-18T03:40:55.959Z,99.90
2023-06-18T03:43:22.685Z,99.90
2023-06-18T04:30:00.867Z,99.90
2023-06-18T04:44:43.062Z,99.90
2023-06-18T04:47:09.700Z,99.90
2023-06-18T04:49:36.373Z,99.90
2023-06-18T04:52:03.101Z,99.90
2023-06-18T04:54:29.766Z,99.90
2023-06-18T04:56:58.366Z,99.90
2023-06-18T04:59:25.918Z,99.90
2023-06-18T05:01:52.752Z,99.90
2023-06-18T05:04:19.723Z,99.90
2023-06-18T05:06:46.421Z,99.90
2023-06-18T05:09:13.567Z,99.90
2023-06-18T05:11:40.628Z,99.90
2023-06-18T05:14:07.230Z,99.90
2023-06-18T05:16:34.945Z,99.90
2023-06-18T05:19:01.647Z,99.90
2023-06-18T05:21:28.376Z,99.90
2023-06-18T05:23:55.022Z,99.90
2023-06-18T05:26:22.334Z,99.90
2023-06-18T05:28:49.371Z,99.90
2023-06-18T05:31:16.019Z,99.90
2023-06-18T05:33:42.666Z,99.90
2023-06-18T05:36:09.298Z,99.90
2023-06-18T05:38:36.055Z,99.90
2023-06-18T05:41:03.082Z,99.90
2023-06-18T05:43:29.655Z,99.90
2023-06-18T05:45:56.571Z,99.90
2023-06-18T05:48:23.254Z,99.90
2023-06-18T05:50:49.905Z,99.90
2023-06-18T05:53:16.519Z,99.90
2023-06-18T05:55:43.152Z,99.90
2023-06-18T05:58:09.824Z,99.90
2023-06-18T06:00:36.625Z,99.90
2023-06-18T06:07:58.079Z,99.90
2023-06-18T06:10:25.154Z,99.90
2023-06-18T06:12:52.131Z,99.90
2023-06-18T06:15:18.757Z,99.90
2023-06-18T06:17:45.439Z,99.90
2023-06-18T06:20:12.233Z,99.90
2023-06-18T06:22:38.880Z,99.90
2023-06-18T06:25:05.875Z,99.90
2023-06-18T06:27:32.685Z,99.90
2023-06-18T06:30:00.494Z,99.90
2023-06-18T06:32:28.294Z,99.90
2023-06-18T06:34:55.011Z,99.90
2023-06-18T06:37:21.617Z,99.90
2023-06-18T06:39:49.706Z,99.90
2023-06-18T06:42:16.318Z,99.90
2023-06-18T06:44:42.953Z,99.90
2023-06-18T06:47:09.572Z,99.90
2023-06-18T06:49:36.301Z,99.90
2023-06-18T06:52:02.992Z,99.90
2023-06-18T06:54:29.647Z,99.90
2023-06-18T06:56:56.262Z,99.90
2023-06-18T06:59:22.993Z,99.90
2023-06-18T07:01:49.590Z,99.90
2023-06-18T07:04:16.412Z,99.90
2023-06-18T07:06:43.103Z,99.90
2023-06-18T07:09:09.716Z,99.90
2023-06-18T07:11:37.676Z,99.90
2023-06-18T07:14:05.041Z,99.90
2023-06-18T07:16:32.032Z,99.90
2023-06-18T07:18:58.719Z,99.90
2023-06-18T07:21:25.341Z,99.90
2023-06-18T07:23:52.202Z,99.90
2023-06-18T07:26:18.850Z,99.90
2023-06-18T07:31:12.597Z,99.90
2023-06-18T07:33:39.229Z,99.90
2023-06-18T07:36:06.057Z,99.90
2023-06-18T07:38:32.725Z,99.90
2023-06-18T07:40:59.366Z,99.90
2023-06-18T07:43:25.970Z,99.90
2023-06-18T07:45:52.663Z,99.90
2023-06-18T07:48:19.270Z,99.90
2023-06-18T07:50:46.277Z,99.90
2023-06-18T07:53:12.888Z,99.90
2023-06-18T07:55:39.504Z,99.90
2023-06-18T07:58:06.116Z,99.90
2023-06-18T08:00:32.752Z,99.90
2023-06-18T08:02:59.415Z,99.90
2023-06-18T08:05:26.438Z,99.90
2023-06-18T08:07:53.114Z,99.90
2023-06-18T08:10:19.791Z,99.90
2023-06-18T08:12:46.503Z,99.90
2023-06-18T08:15:13.124Z,99.90
2023-06-18T08:17:39.771Z,99.90
2023-06-18T08:20:07.086Z,99.90
2023-06-18T08:22:33.731Z,99.90
2023-06-18T08:25:00.357Z,99.90
2023-06-18T08:27:26.967Z,99.90
2023-06-18T08:29:53.582Z,99.90
2023-06-18T08:32:20.213Z,99.90
2023-06-18T08:34:47.343Z,99.90
2023-06-18T08:37:13.964Z,99.90
2023-06-18T08:39:40.557Z,99.90
2023-06-18T08:42:07.431Z,99.90
2023-06-18T08:44:35.343Z,99.90
2023-06-18T08:47:04.502Z,99.90
2023-06-18T08:49:31.877Z,99.90
2023-06-18T08:52:00.394Z,99.90
2023-06-18T08:54:34.300Z,99.90
2023-06-18T08:57:12.810Z,99.90
2023-06-18T08:59:39.599Z,99.90
2023-06-18T09:02:06.445Z,99.90
2023-06-18T09:04:34.963Z,99.90
2023-06-18T09:07:01.698Z,99.90
2023-06-18T09:09:30.695Z,99.90
2023-06-18T09:11:57.962Z,99.90
2023-06-18T09:14:25.939Z,99.90
2023-06-18T09:16:54.168Z,99.90
2023-06-18T09:19:21.427Z,99.90
2023-06-18T09:21:48.170Z,99.90
2023-06-18T09:24:20.074Z,99.90
2023-06-18T09:26:47.580Z,99.90
2023-06-18T09:29:14.604Z,99.60
2023-06-18T09:31:45.914Z,99.00
2023-06-18T09:34:19.496Z,97.90
2023-06-18T09:36:47.633Z,97.10
2023-06-18T09:39:21.580Z,96.80
2023-06-18T09:41:48.949Z,97.90
2023-06-18T09:44:16.270Z,97.60
2023-06-18T09:46:47.275Z,95.00
2023-06-18T09:49:14.580Z,93.90
2023-06-18T09:51:44.311Z,93.10
2023-06-18T09:54:11.129Z,93.60
2023-06-18T09:56:55.179Z,93.20
2023-06-18T09:59:21.809Z,93.60
2023-06-18T10:01:49.908Z,92.00
2023-06-18T10:04:18.286Z,91.00
2023-06-18T10:06:52.751Z,91.40
2023-06-18T10:09:20.961Z,91.00
2023-06-18T10:11:51.984Z,91.10
2023-06-18T10:14:22.089Z,90.10
2023-06-18T10:16:51.104Z,89.00
2023-06-18T10:19:23.914Z,90.30
2023-06-18T10:21:55.199Z,90.70
2023-06-18T10:24:22.822Z,88.30
2023-06-18T10:26:49.559Z,89.80
2023-06-18T10:29:16.853Z,88.10
2023-06-18T10:31:43.649Z,90.40
2023-06-18T10:34:11.550Z,88.80
2023-06-18T10:36:38.384Z,86.30
2023-06-18T10:39:07.192Z,83.50
2023-06-18T10:41:37.456Z,85.60
2023-06-18T10:44:04.102Z,84.70
2023-06-18T10:46:35.104Z,86.80
2023-06-18T10:49:15.169Z,83.20
2023-06-18T10:51:42.440Z,84.80
2023-06-18T10:54:21.203Z,83.30
2023-06-18T10:56:52.770Z,87.60
2023-06-18T10:59:40.076Z,82.20
2023-06-18T11:04:34.769Z,81.50
2023-06-18T11:07:21.131Z,81.60
2023-06-18T11:09:52.348Z,82.80
2023-06-18T11:12:19.690Z,81.00
2023-06-18T11:15:04.617Z,81.40
2023-06-18T11:17:32.098Z,80.40
2023-06-18T11:19:59.144Z,82.50
2023-06-18T11:22:26.291Z,83.00
2023-06-18T11:24:53.067Z,83.70
2023-06-18T11:27:20.380Z,83.30
2023-06-18T11:29:47.167Z,80.60
2023-06-18T11:32:14.110Z,76.90
2023-06-18T11:34:41.557Z,78.90
2023-06-18T11:37:09.169Z,82.90
2023-06-18T11:39:35.836Z,77.40
2023-06-18T11:42:16.664Z,76.60
2023-06-18T11:44:45.760Z,76.70
2023-06-18T11:47:12.374Z,75.30
2023-06-18T11:49:41.888Z,78.90
2023-06-18T11:52:08.699Z,78.00
2023-06-18T11:54:37.635Z,76.40
2023-06-18T11:57:04.339Z,76.10
2023-06-18T11:59:32.118Z,74.90
2023-06-18T12:02:09.730Z,72.10
2023-06-18T12:04:36.500Z,71.50
2023-06-18T12:07:03.146Z,69.50
2023-06-18T12:09:34.326Z,70.00
2023-06-18T12:12:08.634Z,71.50
2023-06-18T12:14:45.055Z,69.50
2023-06-18T12:17:22.818Z,69.30
2023-06-18T12:22:17.585Z,66.70
2023-06-18T12:24:44.632Z,67.40
2023-06-18T12:27:11.238Z,67.40
2023-06-18T12:29:40.241Z,67.70
2023-06-18T12:32:07.044Z,66.00
2023-06-18T12:34:34.082Z,65.30
2023-06-18T12:37:00.707Z,67.40
2023-06-18T12:39:27.337Z,67.40
2023-06-18T12:41:56.195Z,67.90
2023-06-18T12:44:22.835Z,66.50
2023-06-18T12:46:50.431Z,64.90
2023-06-18T12:49:18.310Z,59.50
2023-06-18T12:51:45.505Z,60.70
2023-06-18T12:54:16.044Z,62.30
2023-06-18T12:56:54.139Z,59.60
2023-06-18T12:59:21.878Z,60.40
2023-06-18T13:01:49.062Z,60.70
2023-06-18T13:04:17.891Z,61.50
2023-06-18T13:06:44.784Z,63.10
2023-06-18T13:09:11.627Z,61.50
2023-06-18T13:11:39.201Z,65.20
2023-06-18T13:14:09.344Z,63.30
2023-06-18T13:16:38.827Z,66.80
2023-06-18T13:19:08.302Z,59.50
2023-06-18T13:21:35.137Z,93.20
2023-06-18T13:24:01.850Z,71.10
2023-06-18T13:26:30.393Z,62.20
2023-06-18T13:28:57.378Z,62.50
2023-06-18T13:31:24.318Z,71.30
2023-06-18T13:33:51.366Z,67.40
2023-06-18T13:36:18.580Z,63.90
2023-06-18T13:38:45.212Z,59.70
2023-06-18T13:41:11.875Z,57.70
2023-06-18T13:43:38.500Z,63.50
2023-06-18T13:46:05.327Z,68.90
2023-06-18T13:48:33.314Z,63.30
2023-06-18T13:50:59.945Z,59.20
2023-06-18T13:53:26.762Z,69.70
2023-06-18T13:55:53.490Z,57.40
2023-06-18T13:58:20.135Z,59.60
2023-06-18T14:00:46.804Z,58.70
2023-06-18T14:03:13.789Z,56.60
2023-06-18T14:05:40.566Z,54.20
2023-06-18T14:08:08.614Z,55.40
2023-06-18T14:10:35.415Z,56.90
2023-06-18T14:13:02.109Z,57.50
2023-06-18T14:15:28.782Z,58.50
2023-06-18T14:17:55.434Z,57.50
2023-06-18T14:20:22.178Z,55.60
2023-06-18T14:22:49.878Z,55.70
2023-06-18T14:25:16.649Z,55.10
2023-06-18T14:27:43.647Z,55.40
2023-06-18T14:30:11.763Z,56.00
2023-06-18T14:32:39.988Z,62.00
2023-06-18T14:35:06.843Z,53.80
2023-06-18T14:37:33.526Z,55.00
2023-06-18T14:40:00.166Z,56.20
2023-06-18T14:42:26.846Z,54.70
2023-06-18T14:44:53.474Z,55.70
2023-06-18T14:47:20.272Z,54.20
2023-06-18T14:49:54.119Z,56.40
2023-06-18T14:52:21.400Z,55.80
2023-06-18T14:54:48.383Z,54.90
2023-06-18T14:57:15.782Z,53.10
2023-06-18T14:59:42.486Z,53.90
2023-06-18T15:04:55.294Z,52.90
2023-06-18T15:07:21.908Z,57.50
2023-06-18T15:09:48.629Z,52.60
2023-06-18T15:12:15.724Z,53.00
2023-06-18T15:14:42.810Z,52.40
2023-06-18T15:17:09.566Z,52.90
2023-06-18T15:19:36.198Z,52.60
2023-06-18T15:22:07.031Z,51.60
2023-06-18T15:24:33.771Z,52.20
2023-06-18T15:27:00.494Z,51.70
2023-06-18T15:29:27.084Z,51.50
2023-06-18T15:31:53.802Z,53.10
2023-06-18T15:34:20.511Z,52.80
2023-06-18T15:36:47.114Z,53.50
2023-06-18T15:39:13.998Z,51.50
2023-06-18T15:41:40.656Z,50.90
2023-06-18T15:44:07.594Z,51.80
2023-06-18T15:46:34.789Z,51.50
2023-06-18T15:49:01.818Z,51.30
2023-06-18T15:51:28.569Z,51.00
2023-06-18T15:53:55.283Z,51.80
2023-06-18T15:56:22.022Z,51.20
2023-06-18T15:58:49.859Z,50.60
2023-06-18T16:01:17.017Z,50.70
2023-06-18T16:03:43.763Z,50.60
2023-06-18T16:06:10.375Z,50.00
2023-06-18T16:08:37.892Z,50.80
2023-06-18T16:11:04.758Z,50.30
2023-06-18T16:13:31.426Z,49.80
2023-06-18T16:18:25.100Z,54.00
2023-06-18T16:20:51.766Z,49.50
2023-06-18T16:23:18.667Z,57.20
2023-06-18T16:25:45.280Z,56.90
2023-06-18T16:28:12.000Z,52.40
2023-06-18T16:30:38.626Z,48.90
2023-06-18T16:33:05.329Z,49.90
2023-06-18T16:35:31.983Z,50.70
2023-06-18T16:37:58.611Z,62.50
2023-06-18T16:40:26.006Z,89.80
2023-06-18T16:42:52.678Z,84.80
2023-06-18T16:45:19.285Z,58.20
2023-06-18T16:47:46.764Z,49.00
2023-06-18T16:50:13.923Z,50.00
2023-06-18T16:52:40.590Z,50.60
2023-06-18T17:00:01.394Z,51.70
2023-06-18T17:04:57.073Z,54.60
2023-06-18T17:07:24.023Z,54.60
2023-06-18T17:12:18.037Z,54.60
2023-06-18T17:14:44.675Z,54.80
2023-06-18T17:17:11.329Z,55.80
2023-06-18T17:19:38.467Z,57.50
2023-06-18T17:22:06.579Z,57.00
2023-06-18T17:24:33.265Z,61.40
2023-06-18T17:29:26.994Z,57.10
2023-06-18T17:31:54.697Z,56.90
2023-06-18T17:34:23.118Z,57.30
2023-06-18T17:36:50.701Z,56.70
2023-06-18T17:39:17.839Z,58.80
2023-06-18T17:41:44.574Z,58.00
2023-06-18T17:44:11.192Z,61.60
2023-06-18T17:46:37.851Z,57.90
2023-06-18T17:49:04.494Z,66.00
2023-06-18T17:53:58.443Z,93.20
2023-06-18T17:58:52.155Z,90.30
2023-06-18T18:03:47.480Z,87.90
2023-06-18T18:06:15.817Z,64.90
2023-06-18T18:08:45.381Z,93.90
2023-06-18T18:11:12.131Z,81.20
2023-06-18T18:13:38.811Z,63.90
2023-06-18T18:16:05.500Z,66.40
2023-06-18T18:18:32.140Z,68.90
2023-06-18T18:20:58.797Z,66.10
2023-06-18T18:23:25.499Z,71.50
2023-06-18T18:28:24.298Z,73.10
2023-06-18T18:35:46.201Z,89.40
2023-06-18T18:38:12.862Z,96.50
2023-06-18T18:40:39.517Z,99.40
2023-06-18T18:43:06.142Z,99.90
2023-06-18T18:45:32.836Z,94.30
2023-06-18T18:47:59.925Z,96.80
2023-06-18T18:50:26.734Z,96.40
2023-06-18T18:52:53.473Z,82.80
2023-06-18T18:55:20.108Z,84.80
2023-06-18T18:57:46.780Z,99.90
2023-06-18T19:00:13.839Z,88.30
2023-06-18T19:02:40.516Z,90.30
2023-06-18T19:05:07.339Z,90.50
2023-06-18T19:07:34.210Z,91.10
2023-06-18T19:10:01.016Z,92.40
2023-06-18T19:12:28.221Z,93.80
2023-06-18T19:14:57.031Z,93.30
2023-06-18T19:17:23.749Z,93.60
2023-06-18T19:19:50.476Z,94.00
2023-06-18T19:22:17.175Z,94.30
2023-06-18T19:24:43.897Z,95.40
2023-06-18T19:27:10.632Z,95.20
2023-06-18T19:29:37.249Z,96.40
2023-06-18T19:32:04.089Z,96.10
2023-06-18T19:34:30.816Z,95.90
2023-06-18T19:36:57.821Z,96.60
2023-06-18T19:39:24.431Z,96.50
2023-06-18T19:41:51.088Z,99.90
2023-06-18T19:44:17.833Z,99.40
2023-06-18T19:46:47.052Z,99.90
2023-06-18T19:49:13.808Z,99.90
2023-06-18T19:51:40.589Z,99.90
2023-06-18T19:54:07.321Z,99.90
2023-06-18T19:56:34.406Z,99.90
2023-06-18T19:59:01.091Z,99.90
2023-06-18T20:01:27.785Z,99.90
2023-06-18T20:03:54.630Z,99.90
2023-06-18T20:06:21.309Z,99.90
2023-06-18T20:08:47.934Z,99.90
2023-06-18T20:11:14.735Z,99.90
2023-06-18T20:13:41.415Z,99.90
2023-06-18T20:16:08.068Z,99.90
2023-06-18T20:18:34.824Z,99.90
2023-06-18T20:21:02.385Z,99.90
2023-06-18T20:23:31.230Z,99.90
2023-06-18T20:25:58.356Z,99.90
2023-06-18T20:28:25.108Z,99.90
2023-06-18T20:30:51.792Z,99.90
2023-06-18T20:33:18.481Z,99.90
2023-06-18T20:35:45.115Z,99.90
2023-06-18T20:38:11.762Z,99.90
2023-06-18T20:40:38.392Z,99.90
2023-06-18T20:43:05.063Z,99.90
2023-06-18T20:45:31.697Z,99.90
2023-06-18T20:47:59.013Z,99.90
2023-06-18T20:50:25.756Z,99.90
2023-06-18T20:52:52.696Z,99.90
2023-06-18T20:55:19.312Z,99.90
2023-06-18T20:57:45.925Z,99.90
2023-06-18T21:00:13.037Z,99.90
2023-06-18T21:02:42.291Z,99.90
2023-06-18T21:05:10.746Z,99.90
2023-06-18T21:07:38.635Z,99.90
2023-06-18T21:10:08.616Z,99.90
2023-06-18T21:12:35.276Z,99.90
2023-06-18T21:15:01.989Z,99.90
2023-06-18T21:17:28.645Z,99.90
2023-06-18T21:19:55.281Z,99.90
2023-06-18T21:22:21.936Z,99.90
2023-06-18T21:24:48.619Z,99.90
2023-06-18T21:27:15.293Z,99.90
2023-06-18T21:29:41.992Z,99.90
2023-06-18T21:34:35.828Z,99.90
2023-06-18T21:39:29.572Z,99.90
2023-06-18T21:41:58.487Z,99.90
2023-06-18T21:44:25.422Z,99.90
2023-06-18T21:46:52.101Z,99.90
2023-06-18T21:49:18.779Z,99.90
2023-06-18T21:51:45.391Z,99.90
2023-06-18T21:54:12.046Z,99.90
2023-06-18T21:56:38.718Z,99.90
2023-06-18T21:59:05.351Z,99.90
2023-06-18T22:01:31.986Z,99.90
2023-06-18T22:03:58.770Z,99.90
2023-06-18T22:06:25.616Z,99.90
2023-06-18T22:08:53.319Z,99.90
2023-06-18T22:11:21.121Z,99.90
2023-06-18T22:13:47.838Z,99.90
2023-06-18T22:16:15.065Z,99.90
2023-06-18T22:18:41.782Z,99.90
2023-06-18T22:21:08.496Z,99.90
2023-06-18T22:23:35.151Z,99.90
2023-06-18T22:26:01.881Z,99.90
2023-06-18T22:28:28.589Z,99.90
2023-06-18T22:30:55.297Z,99.90
2023-06-18T22:33:21.918Z,99.90
2023-06-18T22:35:48.558Z,99.90
2023-06-18T22:38:15.227Z,99.90
2023-06-18T22:40:41.898Z,99.90
2023-06-18T22:43:08.505Z,99.90
2023-06-18T22:45:35.222Z,99.90
2023-06-18T22:48:01.900Z,99.90
2023-06-18T22:50:28.623Z,99.90
2023-06-18T22:52:55.437Z,99.90
2023-06-18T22:55:22.087Z,99.90
2023-06-18T22:57:48.769Z,99.90
2023-06-18T23:00:16.779Z,99.90
2023-06-18T23:02:43.845Z,99.90
2023-06-18T23:05:10.589Z,99.90
2023-06-18T23:07:37.377Z,99.90
2023-06-18T23:12:31.166Z,99.90
2023-06-18T23:14:57.797Z,99.90
2023-06-18T23:17:24.640Z,99.90
2023-06-18T23:19:53.209Z,99.90
2023-06-18T23:22:19.971Z,99.90
2023-06-18T23:24:48.303Z,99.90
2023-06-18T23:27:15.047Z,99.90
2023-06-18T23:32:09.027Z,99.90
2023-06-18T23:34:36.102Z,99.90
2023-06-18T23:37:02.784Z,99.90
2023-06-18T23:39:29.443Z,99.90
2023-06-18T23:41:56.365Z,99.90
2023-06-18T23:44:23.033Z,99.90
2023-06-18T23:46:49.747Z,99.90
2023-06-18T23:49:16.365Z,99.90
2023-06-18T23:51:42.986Z,99.90
2023-06-18T23:54:09.646Z,99.90
2023-06-18T23:56:36.337Z,99.90
2023-06-18T23:59:02.952Z,99.90
